sensor_id;sensor_type;location;lat;lon;timestamp;temperature;humidity
18506;DHT22;9382;53.242;10.438;2022-10-22T00:02:21;14.10;99.90
18506;DHT22;9382;53.242;10.438;2022-10-22T00:04:49;14.10;99.90
18506;DHT22;9382;53.242;10.438;2022-10-22T00:07:16;14.10;99.90
18506;DHT22;9382;53.242;10.438;2022-10-22T00:09:43;14.10;99.90
18506;DHT22;9382;53.242;10.438;2022-10-22T00:12:10;14.10;99.90
18506;DHT22;9382;53.242;10.438;2022-10-22T00:14:37;14.10;99.90
18506;DHT22;9382;53.242;10.438;2022-10-22T00:17:05;14.10;99.90
18506;DHT22;9382;53.242;10.438;2022-10-22T00:19:32;14.10;99.90
18506;DHT22;9382;53.242;10.438;2022-10-22T00:21:59;14.10;99.90
18506;DHT22;9382;53.242;10.438;2022-10-22T00:24:30;14.10;99.90
18506;DHT22;9382;53.242;10.438;2022-10-22T00:26:56;14.10;99.90
18506;DHT22;9382;53.242;10.438;2022-10-22T00:29:23;14.10;99.90
18506;DHT22;9382;53.242;10.438;2022-10-22T00:31:50;14.10;99.90
18506;DHT22;9382;53.242;10.438;2022-10-22T00:34:19;14.10;99.90
18506;DHT22;9382;53.242;10.438;2022-10-22T00:36:47;14.10;99.90
18506;DHT22;9382;53.242;10.438;2022-10-22T00:39:14;14.10;99.90
18506;DHT22;9382;53.242;10.438;2022-10-22T00:41:42;14.10;99.90
18506;DHT22;9382;53.242;10.438;2022-10-22T00:47:09;14.10;99.90
18506;DHT22;9382;53.242;10.438;2022-10-22T00:49:37;14.10;99.90
18506;DHT22;9382;53.242;10.438;2022-10-22T00:52:04;14.10;99.90
18506;DHT22;9382;53.242;10.438;2022-10-22T00:54:31;14.10;99.90
18506;DHT22;9382;53.242;10.438;2022-10-22T00:56:59;14.10;99.90
18506;DHT22;9382;53.242;10.438;2022-10-22T00:59:26;14.10;99.90
18506;DHT22;9382;53.242;10.438;2022-10-22T01:01:53;14.10;99.90
18506;DHT22;9382;53.242;10.438;2022-10-22T01:04:20;14.20;99.90
18506;DHT22;9382;53.242;10.438;2022-10-22T01:06:48;14.20;99.90
18506;DHT22;9382;53.242;10.438;2022-10-22T01:09:20;14.10;99.90
18506;DHT22;9382;53.242;10.438;2022-10-22T01:11:53;14.20;99.90
18506;DHT22;9382;53.242;10.438;2022-10-22T01:14:31;14.10;99.90
18506;DHT22;9382;53.242;10.438;2022-10-22T01:17:05;14.10;99.90
18506;DHT22;9382;53.242;10.438;2022-10-22T01:19:44;14.10;99.90
18506;DHT22;9382;53.242;10.438;2022-10-22T01:22:21;14.10;99.90
18506;DHT22;9382;53.242;10.438;2022-10-22T01:24:56;14.10;99.90
18506;DHT22;9382;53.242;10.438;2022-10-22T01:27:38;14.10;99.90
18506;DHT22;9382;53.242;10.438;2022-10-22T01:30:11;14.10;99.90
18506;DHT22;9382;53.242;10.438;2022-10-22T01:32:42;14.20;99.90
18506;DHT22;9382;53.242;10.438;2022-10-22T01:35:13;14.20;99.90
18506;DHT22;9382;53.242;10.438;2022-10-22T01:37:45;14.20;99.90
18506;DHT22;9382;53.242;10.438;2022-10-22T01:40:13;14.20;99.90
18506;DHT22;9382;53.242;10.438;2022-10-22T01:42:41;14.20;99.90
18506;DHT22;9382;53.242;10.438;2022-10-22T01:45:13;14.20;99.90
18506;DHT22;9382;53.242;10.438;2022-10-22T01:47:47;14.20;99.90
18506;DHT22;9382;53.242;10.438;2022-10-22T01:50:34;14.10;99.90
18506;DHT22;9382;53.242;10.438;2022-10-22T01:53:17;14.00;99.90
18506;DHT22;9382;53.242;10.438;2022-10-22T01:55:55;14.00;99.90
18506;DHT22;9382;53.242;10.438;2022-10-22T01:58:36;13.90;99.90
18506;DHT22;9382;53.242;10.438;2022-10-22T02:01:12;13.90;99.90
18506;DHT22;9382;53.242;10.438;2022-10-22T02:03:44;13.80;99.90
18506;DHT22;9382;53.242;10.438;2022-10-22T02:06:15;13.80;99.90
18506;DHT22;9382;53.242;10.438;2022-10-22T02:08:43;13.80;99.90
18506;DHT22;9382;53.242;10.438;2022-10-22T02:11:11;13.80;99.90
18506;DHT22;9382;53.242;10.438;2022-10-22T02:13:41;13.80;99.90
18506;DHT22;9382;53.242;10.438;2022-10-22T02:16:13;13.70;99.90
18506;DHT22;9382;53.242;10.438;2022-10-22T02:18:43;13.70;99.90
18506;DHT22;9382;53.242;10.438;2022-10-22T02:21:11;13.70;99.90
18506;DHT22;9382;53.242;10.438;2022-10-22T02:23:38;13.70;99.90
18506;DHT22;9382;53.242;10.438;2022-10-22T02:26:08;13.60;99.90
18506;DHT22;9382;53.242;10.438;2022-10-22T02:28:44;13.60;99.90
18506;DHT22;9382;53.242;10.438;2022-10-22T02:31:18;13.60;99.90
18506;DHT22;9382;53.242;10.438;2022-10-22T02:33:49;13.50;99.90
18506;DHT22;9382;53.242;10.438;2022-10-22T02:36:16;13.50;99.90
18506;DHT22;9382;53.242;10.438;2022-10-22T02:38:45;13.40;99.90
18506;DHT22;9382;53.242;10.438;2022-10-22T02:41:13;13.40;99.90
18506;DHT22;9382;53.242;10.438;2022-10-22T02:43:41;13.30;99.90
18506;DHT22;9382;53.242;10.438;2022-10-22T02:46:09;13.30;99.90
18506;DHT22;9382;53.242;10.438;2022-10-22T02:48:37;13.30;99.90
18506;DHT22;9382;53.242;10.438;2022-10-22T02:51:04;13.20;99.90
18506;DHT22;9382;53.242;10.438;2022-10-22T02:53:31;13.20;99.90
18506;DHT22;9382;53.242;10.438;2022-10-22T02:55:58;13.10;99.90
18506;DHT22;9382;53.242;10.438;2022-10-22T02:58:25;13.10;99.90
18506;DHT22;9382;53.242;10.438;2022-10-22T03:00:52;13.10;99.90
18506;DHT22;9382;53.242;10.438;2022-10-22T03:03:19;13.00;99.90
18506;DHT22;9382;53.242;10.438;2022-10-22T03:05:48;13.00;99.90
18506;DHT22;9382;53.242;10.438;2022-10-22T03:08:15;12.90;99.90
18506;DHT22;9382;53.242;10.438;2022-10-22T03:10:42;12.90;99.90
18506;DHT22;9382;53.242;10.438;2022-10-22T03:13:09;12.90;99.90
18506;DHT22;9382;53.242;10.438;2022-10-22T03:15:36;12.80;99.90
18506;DHT22;9382;53.242;10.438;2022-10-22T03:18:02;12.80;99.90
18506;DHT22;9382;53.242;10.438;2022-10-22T03:20:29;12.60;99.90
18506;DHT22;9382;53.242;10.438;2022-10-22T03:22:57;12.60;99.90
18506;DHT22;9382;53.242;10.438;2022-10-22T03:25:26;12.50;99.90
18506;DHT22;9382;53.242;10.438;2022-10-22T03:27:54;12.50;99.90
18506;DHT22;9382;53.242;10.438;2022-10-22T03:30:22;12.40;99.90
18506;DHT22;9382;53.242;10.438;2022-10-22T03:32:49;12.30;99.90
18506;DHT22;9382;53.242;10.438;2022-10-22T03:35:15;12.30;99.90
18506;DHT22;9382;53.242;10.438;2022-10-22T03:37:42;12.30;99.90
18506;DHT22;9382;53.242;10.438;2022-10-22T03:40:12;12.30;99.90
18506;DHT22;9382;53.242;10.438;2022-10-22T03:42:39;12.30;99.90
18506;DHT22;9382;53.242;10.438;2022-10-22T03:45:07;12.40;99.90
18506;DHT22;9382;53.242;10.438;2022-10-22T03:47:34;12.40;99.90
18506;DHT22;9382;53.242;10.438;2022-10-22T03:50:02;12.40;99.90
18506;DHT22;9382;53.242;10.438;2022-10-22T03:52:35;12.40;99.90
18506;DHT22;9382;53.242;10.438;2022-10-22T03:55:02;12.40;99.90
18506;DHT22;9382;53.242;10.438;2022-10-22T03:57:30;12.50;99.90
18506;DHT22;9382;53.242;10.438;2022-10-22T03:59:57;12.50;99.90
18506;DHT22;9382;53.242;10.438;2022-10-22T04:02:24;12.40;99.90
18506;DHT22;9382;53.242;10.438;2022-10-22T04:04:50;12.40;99.90
18506;DHT22;9382;53.242;10.438;2022-10-22T04:07:17;12.30;99.90
18506;DHT22;9382;53.242;10.438;2022-10-22T04:09:44;12.30;99.90
18506;DHT22;9382;53.242;10.438;2022-10-22T04:12:11;12.30;99.90
18506;DHT22;9382;53.242;10.438;2022-10-22T04:14:39;12.20;99.90
18506;DHT22;9382;53.242;10.438;2022-10-22T04:17:05;12.20;99.90
18506;DHT22;9382;53.242;10.438;2022-10-22T04:19:32;12.20;99.90
18506;DHT22;9382;53.242;10.438;2022-10-22T04:21:59;12.10;99.90
18506;DHT22;9382;53.242;10.438;2022-10-22T04:24:26;12.10;99.90
18506;DHT22;9382;53.242;10.438;2022-10-22T04:26:54;12.10;99.90
18506;DHT22;9382;53.242;10.438;2022-10-22T04:29:20;12.10;99.90
18506;DHT22;9382;53.242;10.438;2022-10-22T04:31:49;12.20;99.90
18506;DHT22;9382;53.242;10.438;2022-10-22T04:34:15;12.20;99.90
18506;DHT22;9382;53.242;10.438;2022-10-22T04:36:42;12.20;99.90
18506;DHT22;9382;53.242;10.438;2022-10-22T04:39:09;12.20;99.90
18506;DHT22;9382;53.242;10.438;2022-10-22T04:41:37;12.20;99.90
18506;DHT22;9382;53.242;10.438;2022-10-22T04:44:05;12.20;99.90
18506;DHT22;9382;53.242;10.438;2022-10-22T04:46:33;12.10;99.90
18506;DHT22;9382;53.242;10.438;2022-10-22T04:49:02;12.10;99.90
18506;DHT22;9382;53.242;10.438;2022-10-22T04:51:29;12.00;99.90
18506;DHT22;9382;53.242;10.438;2022-10-22T04:53:56;12.00;99.90
18506;DHT22;9382;53.242;10.438;2022-10-22T04:56:25;12.00;99.90
18506;DHT22;9382;53.242;10.438;2022-10-22T04:58:53;12.00;99.90
18506;DHT22;9382;53.242;10.438;2022-10-22T05:01:22;12.00;99.90
18506;DHT22;9382;53.242;10.438;2022-10-22T05:03:50;12.00;99.90
18506;DHT22;9382;53.242;10.438;2022-10-22T05:06:19;12.00;99.90
18506;DHT22;9382;53.242;10.438;2022-10-22T05:08:47;12.00;99.90
18506;DHT22;9382;53.242;10.438;2022-10-22T05:11:16;12.00;99.90
18506;DHT22;9382;53.242;10.438;2022-10-22T05:13:44;12.00;99.90
18506;DHT22;9382;53.242;10.438;2022-10-22T05:16:11;12.00;99.90
18506;DHT22;9382;53.242;10.438;2022-10-22T05:18:40;12.00;99.90
18506;DHT22;9382;53.242;10.438;2022-10-22T05:21:08;12.00;99.90
18506;DHT22;9382;53.242;10.438;2022-10-22T05:23:37;12.00;99.90
18506;DHT22;9382;53.242;10.438;2022-10-22T05:26:04;12.00;99.90
18506;DHT22;9382;53.242;10.438;2022-10-22T05:28:31;12.00;99.90
18506;DHT22;9382;53.242;10.438;2022-10-22T05:30:59;12.00;99.90
18506;DHT22;9382;53.242;10.438;2022-10-22T05:33:27;12.00;99.90
18506;DHT22;9382;53.242;10.438;2022-10-22T05:35:54;12.00;99.90
18506;DHT22;9382;53.242;10.438;2022-10-22T05:38:21;12.00;99.90
18506;DHT22;9382;53.242;10.438;2022-10-22T05:40:58;12.00;99.90
18506;DHT22;9382;53.242;10.438;2022-10-22T05:43:26;12.00;99.90
18506;DHT22;9382;53.242;10.438;2022-10-22T05:45:53;11.90;99.90
18506;DHT22;9382;53.242;10.438;2022-10-22T05:48:19;11.80;99.90
18506;DHT22;9382;53.242;10.438;2022-10-22T05:50:46;11.80;99.90
18506;DHT22;9382;53.242;10.438;2022-10-22T05:53:15;11.80;99.90
18506;DHT22;9382;53.242;10.438;2022-10-22T05:55:42;11.80;99.90
18506;DHT22;9382;53.242;10.438;2022-10-22T05:58:11;11.90;99.90
18506;DHT22;9382;53.242;10.438;2022-10-22T06:00:38;11.90;99.90
18506;DHT22;9382;53.242;10.438;2022-10-22T06:03:05;11.90;99.90
18506;DHT22;9382;53.242;10.438;2022-10-22T06:05:33;12.00;99.90
18506;DHT22;9382;53.242;10.438;2022-10-22T06:08:01;12.00;99.90
18506;DHT22;9382;53.242;10.438;2022-10-22T06:10:28;12.00;99.90
18506;DHT22;9382;53.242;10.438;2022-10-22T06:12:55;12.00;99.90
18506;DHT22;9382;53.242;10.438;2022-10-22T06:15:23;12.10;99.90
18506;DHT22;9382;53.242;10.438;2022-10-22T06:17:50;12.10;99.90
18506;DHT22;9382;53.242;10.438;2022-10-22T06:20:17;12.10;99.90
18506;DHT22;9382;53.242;10.438;2022-10-22T06:22:44;12.10;99.90
18506;DHT22;9382;53.242;10.438;2022-10-22T06:25:12;12.10;99.90
18506;DHT22;9382;53.242;10.438;2022-10-22T06:27:39;12.10;99.90
18506;DHT22;9382;53.242;10.438;2022-10-22T06:30:07;12.10;99.90
18506;DHT22;9382;53.242;10.438;2022-10-22T06:32:35;12.10;99.90
18506;DHT22;9382;53.242;10.438;2022-10-22T06:35:02;12.10;99.90
18506;DHT22;9382;53.242;10.438;2022-10-22T06:37:29;12.20;99.90
18506;DHT22;9382;53.242;10.438;2022-10-22T06:39:55;12.20;99.90
18506;DHT22;9382;53.242;10.438;2022-10-22T06:42:22;12.20;99.90
18506;DHT22;9382;53.242;10.438;2022-10-22T06:44:49;12.20;99.90
18506;DHT22;9382;53.242;10.438;2022-10-22T06:47:15;12.20;99.90
18506;DHT22;9382;53.242;10.438;2022-10-22T06:49:44;12.20;99.90
18506;DHT22;9382;53.242;10.438;2022-10-22T06:52:11;12.20;99.90
18506;DHT22;9382;53.242;10.438;2022-10-22T06:54:38;12.20;99.90
18506;DHT22;9382;53.242;10.438;2022-10-22T06:57:05;12.20;99.90
18506;DHT22;9382;53.242;10.438;2022-10-22T06:59:31;12.20;99.90
18506;DHT22;9382;53.242;10.438;2022-10-22T07:01:58;12.20;99.90
18506;DHT22;9382;53.242;10.438;2022-10-22T07:04:25;12.20;99.90
18506;DHT22;9382;53.242;10.438;2022-10-22T07:06:55;12.20;99.90
18506;DHT22;9382;53.242;10.438;2022-10-22T07:09:21;12.20;99.90
18506;DHT22;9382;53.242;10.438;2022-10-22T07:11:48;12.20;99.90
18506;DHT22;9382;53.242;10.438;2022-10-22T07:14:15;12.20;99.90
18506;DHT22;9382;53.242;10.438;2022-10-22T07:16:41;12.20;99.90
18506;DHT22;9382;53.242;10.438;2022-10-22T07:19:10;12.20;99.90
18506;DHT22;9382;53.242;10.438;2022-10-22T07:21:37;12.30;99.90
18506;DHT22;9382;53.242;10.438;2022-10-22T07:24:06;12.30;99.90
18506;DHT22;9382;53.242;10.438;2022-10-22T07:26:32;12.30;99.90
18506;DHT22;9382;53.242;10.438;2022-10-22T07:28:59;12.30;99.90
18506;DHT22;9382;53.242;10.438;2022-10-22T07:31:27;12.30;99.90
18506;DHT22;9382;53.242;10.438;2022-10-22T07:33:54;12.30;99.90
18506;DHT22;9382;53.242;10.438;2022-10-22T07:36:20;12.30;99.90
18506;DHT22;9382;53.242;10.438;2022-10-22T07:38:52;12.40;99.90
18506;DHT22;9382;53.242;10.438;2022-10-22T07:41:20;12.40;99.90
18506;DHT22;9382;53.242;10.438;2022-10-22T07:43:48;12.50;99.90
18506;DHT22;9382;53.242;10.438;2022-10-22T07:46:14;12.60;99.90
18506;DHT22;9382;53.242;10.438;2022-10-22T07:48:41;12.70;99.90
18506;DHT22;9382;53.242;10.438;2022-10-22T07:51:08;12.90;99.90
18506;DHT22;9382;53.242;10.438;2022-10-22T07:53:35;13.00;99.90
18506;DHT22;9382;53.242;10.438;2022-10-22T07:56:02;13.30;99.90
18506;DHT22;9382;53.242;10.438;2022-10-22T07:58:30;13.50;99.90
18506;DHT22;9382;53.242;10.438;2022-10-22T08:00:58;13.60;99.90
18506;DHT22;9382;53.242;10.438;2022-10-22T08:03:26;13.80;99.90
18506;DHT22;9382;53.242;10.438;2022-10-22T08:05:53;13.90;99.90
18506;DHT22;9382;53.242;10.438;2022-10-22T08:08:21;14.00;99.90
18506;DHT22;9382;53.242;10.438;2022-10-22T08:10:50;14.10;99.90
18506;DHT22;9382;53.242;10.438;2022-10-22T08:13:17;14.20;99.90
18506;DHT22;9382;53.242;10.438;2022-10-22T08:15:46;14.30;99.90
18506;DHT22;9382;53.242;10.438;2022-10-22T08:18:12;14.40;99.90
18506;DHT22;9382;53.242;10.438;2022-10-22T08:20:40;14.60;99.90
18506;DHT22;9382;53.242;10.438;2022-10-22T08:23:07;14.70;99.90
18506;DHT22;9382;53.242;10.438;2022-10-22T08:25:34;14.90;99.90
18506;DHT22;9382;53.242;10.438;2022-10-22T08:28:01;15.00;99.90
18506;DHT22;9382;53.242;10.438;2022-10-22T08:30:28;15.20;99.90
18506;DHT22;9382;53.242;10.438;2022-10-22T08:32:56;15.20;99.90
18506;DHT22;9382;53.242;10.438;2022-10-22T08:35:22;15.30;99.90
18506;DHT22;9382;53.242;10.438;2022-10-22T08:37:49;15.50;99.90
18506;DHT22;9382;53.242;10.438;2022-10-22T08:40:22;15.70;99.90
18506;DHT22;9382;53.242;10.438;2022-10-22T08:43:12;15.90;99.90
18506;DHT22;9382;53.242;10.438;2022-10-22T08:45:49;16.00;99.90
18506;DHT22;9382;53.242;10.438;2022-10-22T08:48:35;16.00;99.90
18506;DHT22;9382;53.242;10.438;2022-10-22T08:51:04;16.10;99.90
18506;DHT22;9382;53.242;10.438;2022-10-22T08:53:38;16.20;99.90
18506;DHT22;9382;53.242;10.438;2022-10-22T08:56:07;16.20;99.90
18506;DHT22;9382;53.242;10.438;2022-10-22T08:58:39;16.30;99.90
18506;DHT22;9382;53.242;10.438;2022-10-22T09:01:11;16.50;99.90
18506;DHT22;9382;53.242;10.438;2022-10-22T09:03:45;16.70;99.90
18506;DHT22;9382;53.242;10.438;2022-10-22T09:06:17;16.70;99.90
18506;DHT22;9382;53.242;10.438;2022-10-22T09:08:46;16.70;99.90
18506;DHT22;9382;53.242;10.438;2022-10-22T09:11:20;16.60;99.90
18506;DHT22;9382;53.242;10.438;2022-10-22T09:13:48;16.70;99.90
18506;DHT22;9382;53.242;10.438;2022-10-22T09:16:17;16.90;99.90
18506;DHT22;9382;53.242;10.438;2022-10-22T09:18:54;17.20;99.90
18506;DHT22;9382;53.242;10.438;2022-10-22T09:21:28;17.40;99.90
18506;DHT22;9382;53.242;10.438;2022-10-22T09:24:02;17.60;99.90
18506;DHT22;9382;53.242;10.438;2022-10-22T09:26:32;17.60;99.90
18506;DHT22;9382;53.242;10.438;2022-10-22T09:29:00;17.70;99.90
18506;DHT22;9382;53.242;10.438;2022-10-22T09:31:28;17.90;99.90
18506;DHT22;9382;53.242;10.438;2022-10-22T09:33:58;18.00;99.90
18506;DHT22;9382;53.242;10.438;2022-10-22T09:36:30;18.10;99.90
18506;DHT22;9382;53.242;10.438;2022-10-22T09:38:57;18.10;99.90
18506;DHT22;9382;53.242;10.438;2022-10-22T09:41:26;18.30;99.90
18506;DHT22;9382;53.242;10.438;2022-10-22T09:43:55;18.50;99.90
18506;DHT22;9382;53.242;10.438;2022-10-22T09:46:23;18.50;99.90
18506;DHT22;9382;53.242;10.438;2022-10-22T09:48:58;18.40;99.90
18506;DHT22;9382;53.242;10.438;2022-10-22T09:51:37;18.50;99.90
18506;DHT22;9382;53.242;10.438;2022-10-22T09:54:14;18.90;99.90
18506;DHT22;9382;53.242;10.438;2022-10-22T09:56:48;19.10;99.90
18506;DHT22;9382;53.242;10.438;2022-10-22T09:59:17;19.30;99.90
18506;DHT22;9382;53.242;10.438;2022-10-22T10:01:44;19.20;99.90
18506;DHT22;9382;53.242;10.438;2022-10-22T10:04:14;19.10;99.90
18506;DHT22;9382;53.242;10.438;2022-10-22T10:06:43;19.10;99.90
18506;DHT22;9382;53.242;10.438;2022-10-22T10:09:15;18.90;99.90
18506;DHT22;9382;53.242;10.438;2022-10-22T10:11:45;19.00;99.90
18506;DHT22;9382;53.242;10.438;2022-10-22T10:14:15;19.10;99.90
18506;DHT22;9382;53.242;10.438;2022-10-22T10:16:55;19.20;99.90
18506;DHT22;9382;53.242;10.438;2022-10-22T10:19:45;19.20;99.90
18506;DHT22;9382;53.242;10.438;2022-10-22T10:22:24;19.30;99.90
18506;DHT22;9382;53.242;10.438;2022-10-22T10:25:08;19.50;99.90
18506;DHT22;9382;53.242;10.438;2022-10-22T10:27:39;19.80;99.90
18506;DHT22;9382;53.242;10.438;2022-10-22T10:30:10;20.00;99.90
18506;DHT22;9382;53.242;10.438;2022-10-22T10:33:01;20.30;99.90
18506;DHT22;9382;53.242;10.438;2022-10-22T10:35:38;20.50;99.90
18506;DHT22;9382;53.242;10.438;2022-10-22T10:38:20;20.70;99.90
18506;DHT22;9382;53.242;10.438;2022-10-22T10:40:52;21.10;99.90
18506;DHT22;9382;53.242;10.438;2022-10-22T10:43:25;21.40;99.90
18506;DHT22;9382;53.242;10.438;2022-10-22T10:46:01;21.70;99.90
18506;DHT22;9382;53.242;10.438;2022-10-22T10:48:47;21.80;99.90
18506;DHT22;9382;53.242;10.438;2022-10-22T10:51:36;22.00;99.90
18506;DHT22;9382;53.242;10.438;2022-10-22T10:54:32;22.40;99.90
18506;DHT22;9382;53.242;10.438;2022-10-22T10:57:03;22.70;99.90
18506;DHT22;9382;53.242;10.438;2022-10-22T10:59:57;23.00;99.90
18506;DHT22;9382;53.242;10.438;2022-10-22T11:05:38;23.30;99.90
18506;DHT22;9382;53.242;10.438;2022-10-22T11:08:11;23.90;99.90
18506;DHT22;9382;53.242;10.438;2022-10-22T11:10:43;24.40;99.90
18506;DHT22;9382;53.242;10.438;2022-10-22T11:13:15;24.70;99.90
18506;DHT22;9382;53.242;10.438;2022-10-22T11:15:46;24.90;99.90
18506;DHT22;9382;53.242;10.438;2022-10-22T11:18:19;25.20;99.90
18506;DHT22;9382;53.242;10.438;2022-10-22T11:20:52;24.90;99.90
18506;DHT22;9382;53.242;10.438;2022-10-22T11:23:27;25.00;99.90
18506;DHT22;9382;53.242;10.438;2022-10-22T11:25:54;25.00;99.90
18506;DHT22;9382;53.242;10.438;2022-10-22T11:28:25;25.00;99.90
18506;DHT22;9382;53.242;10.438;2022-10-22T11:30:58;25.10;99.90
18506;DHT22;9382;53.242;10.438;2022-10-22T11:33:31;25.80;99.90
18506;DHT22;9382;53.242;10.438;2022-10-22T11:36:01;26.30;99.90
18506;DHT22;9382;53.242;10.438;2022-10-22T11:38:30;26.90;99.90
18506;DHT22;9382;53.242;10.438;2022-10-22T11:41:02;27.50;99.90
18506;DHT22;9382;53.242;10.438;2022-10-22T11:43:32;27.70;99.90
18506;DHT22;9382;53.242;10.438;2022-10-22T11:46:07;27.80;99.90
18506;DHT22;9382;53.242;10.438;2022-10-22T11:48:36;28.10;99.90
18506;DHT22;9382;53.242;10.438;2022-10-22T11:51:04;28.60;99.90
18506;DHT22;9382;53.242;10.438;2022-10-22T11:53:57;29.00;99.90
18506;DHT22;9382;53.242;10.438;2022-10-22T11:56:25;29.10;99.90
18506;DHT22;9382;53.242;10.438;2022-10-22T11:58:53;28.90;99.90
18506;DHT22;9382;53.242;10.438;2022-10-22T12:01:26;28.10;99.90
18506;DHT22;9382;53.242;10.438;2022-10-22T12:04:18;27.00;99.90
18506;DHT22;9382;53.242;10.438;2022-10-22T12:06:55;26.10;99.90
18506;DHT22;9382;53.242;10.438;2022-10-22T12:09:24;25.20;99.90
18506;DHT22;9382;53.242;10.438;2022-10-22T12:12:01;24.20;99.90
18506;DHT22;9382;53.242;10.438;2022-10-22T12:14:32;23.20;99.90
18506;DHT22;9382;53.242;10.438;2022-10-22T12:17:06;22.50;99.90
18506;DHT22;9382;53.242;10.438;2022-10-22T12:19:36;22.40;99.90
18506;DHT22;9382;53.242;10.438;2022-10-22T12:22:13;22.40;99.90
18506;DHT22;9382;53.242;10.438;2022-10-22T12:24:45;22.70;99.90
18506;DHT22;9382;53.242;10.438;2022-10-22T12:27:20;24.10;99.90
18506;DHT22;9382;53.242;10.438;2022-10-22T12:29:48;25.40;99.90
18506;DHT22;9382;53.242;10.438;2022-10-22T12:32:19;25.70;99.90
18506;DHT22;9382;53.242;10.438;2022-10-22T12:34:48;25.40;99.90
18506;DHT22;9382;53.242;10.438;2022-10-22T12:37:16;24.60;99.90
18506;DHT22;9382;53.242;10.438;2022-10-22T12:39:45;23.90;99.90
18506;DHT22;9382;53.242;10.438;2022-10-22T12:42:13;23.70;99.90
18506;DHT22;9382;53.242;10.438;2022-10-22T12:44:42;24.30;99.90
18506;DHT22;9382;53.242;10.438;2022-10-22T12:47:14;24.70;99.90
18506;DHT22;9382;53.242;10.438;2022-10-22T12:49:44;23.90;99.90
18506;DHT22;9382;53.242;10.438;2022-10-22T12:52:16;22.70;99.90
18506;DHT22;9382;53.242;10.438;2022-10-22T12:54:45;21.50;99.90
18506;DHT22;9382;53.242;10.438;2022-10-22T12:57:16;20.80;99.90
18506;DHT22;9382;53.242;10.438;2022-10-22T12:59:45;20.70;99.90
18506;DHT22;9382;53.242;10.438;2022-10-22T13:02:16;21.20;99.90
18506;DHT22;9382;53.242;10.438;2022-10-22T13:05:14;22.40;99.90
18506;DHT22;9382;53.242;10.438;2022-10-22T13:07:43;22.60;99.90
18506;DHT22;9382;53.242;10.438;2022-10-22T13:10:17;22.50;99.90
18506;DHT22;9382;53.242;10.438;2022-10-22T13:12:49;23.00;99.90
18506;DHT22;9382;53.242;10.438;2022-10-22T13:15:20;24.10;99.90
18506;DHT22;9382;53.242;10.438;2022-10-22T13:17:47;24.40;99.90
18506;DHT22;9382;53.242;10.438;2022-10-22T13:20:19;24.60;99.90
18506;DHT22;9382;53.242;10.438;2022-10-22T13:22:54;24.80;99.90
18506;DHT22;9382;53.242;10.438;2022-10-22T13:25:25;26.20;99.90
18506;DHT22;9382;53.242;10.438;2022-10-22T13:27:55;27.30;99.90
18506;DHT22;9382;53.242;10.438;2022-10-22T13:30:25;27.40;99.90
18506;DHT22;9382;53.242;10.438;2022-10-22T13:32:54;27.10;99.90
18506;DHT22;9382;53.242;10.438;2022-10-22T13:35:23;27.10;99.90
18506;DHT22;9382;53.242;10.438;2022-10-22T13:37:51;27.80;99.90
18506;DHT22;9382;53.242;10.438;2022-10-22T13:40:18;27.70;99.90
18506;DHT22;9382;53.242;10.438;2022-10-22T13:42:47;27.50;99.90
18506;DHT22;9382;53.242;10.438;2022-10-22T13:45:14;27.30;99.90
18506;DHT22;9382;53.242;10.438;2022-10-22T13:47:41;26.40;99.90
18506;DHT22;9382;53.242;10.438;2022-10-22T13:50:13;26.80;99.90
18506;DHT22;9382;53.242;10.438;2022-10-22T13:52:43;27.60;99.90
18506;DHT22;9382;53.242;10.438;2022-10-22T13:55:18;27.70;99.90
18506;DHT22;9382;53.242;10.438;2022-10-22T13:57:47;28.30;99.90
18506;DHT22;9382;53.242;10.438;2022-10-22T14:00:15;27.80;99.90
18506;DHT22;9382;53.242;10.438;2022-10-22T14:02:42;27.40;99.90
18506;DHT22;9382;53.242;10.438;2022-10-22T14:05:10;26.20;99.90
18506;DHT22;9382;53.242;10.438;2022-10-22T14:07:37;24.40;99.90
18506;DHT22;9382;53.242;10.438;2022-10-22T14:10:16;23.30;99.90
18506;DHT22;9382;53.242;10.438;2022-10-22T14:12:43;23.40;99.90
18506;DHT22;9382;53.242;10.438;2022-10-22T14:15:13;23.20;99.90
18506;DHT22;9382;53.242;10.438;2022-10-22T14:17:41;22.80;99.90
18506;DHT22;9382;53.242;10.438;2022-10-22T14:20:14;23.40;99.90
18506;DHT22;9382;53.242;10.438;2022-10-22T14:22:43;24.30;99.90
18506;DHT22;9382;53.242;10.438;2022-10-22T14:25:13;25.50;99.90
18506;DHT22;9382;53.242;10.438;2022-10-22T14:27:40;26.30;99.90
18506;DHT22;9382;53.242;10.438;2022-10-22T14:30:08;25.70;99.90
18506;DHT22;9382;53.242;10.438;2022-10-22T14:32:40;24.40;99.90
18506;DHT22;9382;53.242;10.438;2022-10-22T14:35:08;24.40;99.90
18506;DHT22;9382;53.242;10.438;2022-10-22T14:37:35;25.10;99.90
18506;DHT22;9382;53.242;10.438;2022-10-22T14:40:02;26.30;99.90
18506;DHT22;9382;53.242;10.438;2022-10-22T14:42:37;27.00;99.90
18506;DHT22;9382;53.242;10.438;2022-10-22T14:45:08;27.70;99.90
18506;DHT22;9382;53.242;10.438;2022-10-22T14:47:36;26.80;99.90
18506;DHT22;9382;53.242;10.438;2022-10-22T14:50:05;25.40;99.90
18506;DHT22;9382;53.242;10.438;2022-10-22T14:52:32;23.90;99.90
18506;DHT22;9382;53.242;10.438;2022-10-22T14:54:59;23.10;99.90
18506;DHT22;9382;53.242;10.438;2022-10-22T14:57:26;22.50;99.90
18506;DHT22;9382;53.242;10.438;2022-10-22T14:59:52;21.90;99.90
18506;DHT22;9382;53.242;10.438;2022-10-22T15:02:20;21.40;99.90
18506;DHT22;9382;53.242;10.438;2022-10-22T15:04:48;21.50;99.90
18506;DHT22;9382;53.242;10.438;2022-10-22T15:07:16;21.50;99.90
18506;DHT22;9382;53.242;10.438;2022-10-22T15:09:44;21.40;99.90
18506;DHT22;9382;53.242;10.438;2022-10-22T15:12:11;21.30;99.90
18506;DHT22;9382;53.242;10.438;2022-10-22T15:14:38;22.10;99.90
18506;DHT22;9382;53.242;10.438;2022-10-22T15:17:04;23.40;99.90
18506;DHT22;9382;53.242;10.438;2022-10-22T15:19:31;24.10;99.90
18506;DHT22;9382;53.242;10.438;2022-10-22T15:21:58;24.30;99.90
18506;DHT22;9382;53.242;10.438;2022-10-22T15:24:26;24.40;99.90
18506;DHT22;9382;53.242;10.438;2022-10-22T15:26:53;23.90;99.90
18506;DHT22;9382;53.242;10.438;2022-10-22T15:29:20;22.90;99.90
18506;DHT22;9382;53.242;10.438;2022-10-22T15:31:49;21.70;99.90
18506;DHT22;9382;53.242;10.438;2022-10-22T15:34:22;20.80;99.90
18506;DHT22;9382;53.242;10.438;2022-10-22T15:36:49;20.00;99.90
18506;DHT22;9382;53.242;10.438;2022-10-22T15:39:16;19.50;99.90
18506;DHT22;9382;53.242;10.438;2022-10-22T15:41:44;19.00;99.90
18506;DHT22;9382;53.242;10.438;2022-10-22T15:44:14;18.50;99.90
18506;DHT22;9382;53.242;10.438;2022-10-22T15:46:41;18.30;99.90
18506;DHT22;9382;53.242;10.438;2022-10-22T15:49:08;18.10;99.90
18506;DHT22;9382;53.242;10.438;2022-10-22T15:51:35;17.80;99.90
18506;DHT22;9382;53.242;10.438;2022-10-22T15:54:02;17.70;99.90